Time;durP1;ratioP1;P1;durP2;ratioP2;P2;SDS_P1;SDS_P2;PMS_P1;PMS_P2;Temp;Humidity;BMP_temperature;BMP_pressure;BME280_temperature;BME280_humidity;BME280_pressure;Samples;Min_cycle;Max_cycle;Signal;HPM_P1;HPM_P2
2023/06/25 00:01:19;;;;;;;0.70;0.70;;;;;;;24.37;79.72;99243.84;5070854;28;20626;-64
2023/06/25 00:03:46;;;;;;;0.70;0.70;;;;;;;24.29;79.76;99252.41;5070866;28;20191;-63
2023/06/25 00:06:12;;;;;;;0.50;0.50;;;;;;;24.20;79.51;99236.66;5070634;28;20572;-64
2023/06/25 00:08:39;;;;;;;2.03;0.60;;;;;;;24.24;79.14;99238.88;5070799;28;20206;-64
2023/06/25 00:11:06;;;;;;;0.50;0.50;;;;;;;24.25;79.12;99239.69;5070769;28;20317;-62
2023/06/25 00:13:33;;;;;;;0.70;0.70;;;;;;;24.25;79.41;99245.78;5070667;28;20199;-62
2023/06/25 00:16:00;;;;;;;0.40;0.40;;;;;;;24.28;80.20;99255.97;5070529;28;20242;-62
2023/06/25 00:18:28;;;;;;;0.70;0.70;;;;;;;24.29;80.66;99246.31;5070593;28;20207;-62
2023/06/25 00:20:55;;;;;;;0.70;0.70;;;;;;;24.36;80.20;99257.94;5068311;28;20577;-63
2023/06/25 00:23:22;;;;;;;0.50;0.50;;;;;;;24.36;79.43;99252.69;5070545;28;20206;-63
2023/06/25 00:25:49;;;;;;;0.57;0.57;;;;;;;24.39;79.00;99247.16;5070780;28;20684;-64
2023/06/25 00:28:16;;;;;;;0.30;0.30;;;;;;;24.40;80.01;99248.81;5067789;28;20298;-61
2023/06/25 00:30:42;;;;;;;0.60;0.60;;;;;;;24.36;80.78;99240.38;5070499;28;20220;-62
2023/06/25 00:33:09;;;;;;;0.40;0.40;;;;;;;24.39;79.15;99241.94;5070722;28;20196;-62
2023/06/25 00:36:07;;;;;;;0.60;0.60;;;;;;;24.30;79.35;99253.19;5070680;28;20600;-62
2023/06/25 00:38:35;;;;;;;0.40;0.40;;;;;;;24.31;79.81;99252.25;5070375;28;20211;-63
2023/06/25 00:41:02;;;;;;;0.60;0.60;;;;;;;24.23;79.35;99250.34;5070481;28;20188;-63
2023/06/25 00:43:28;;;;;;;0.60;0.60;;;;;;;24.17;80.18;99242.19;5070339;28;20445;-62
2023/06/25 00:45:57;;;;;;;0.70;0.70;;;;;;;24.20;80.18;99244.53;5070953;28;20684;-63
2023/06/25 00:48:24;;;;;;;2.20;0.53;;;;;;;24.15;80.25;99244.94;5071952;28;20199;-63
2023/06/25 00:50:51;;;;;;;0.57;0.57;;;;;;;24.07;79.76;99246.53;5074229;28;20675;-62
2023/06/25 00:53:21;;;;;;;0.70;0.70;;;;;;;24.18;81.79;99259.53;5073885;28;20212;-63
2023/06/25 00:55:50;;;;;;;0.50;0.50;;;;;;;24.20;80.37;99257.63;5074043;28;20702;-63
2023/06/25 00:58:22;;;;;;;0.80;0.60;;;;;;;24.24;79.15;99253.75;5073967;28;20200;-63
2023/06/25 01:00:50;;;;;;;1.60;0.77;;;;;;;24.25;79.54;99250.19;5072115;28;20203;-62
2023/06/25 01:03:26;;;;;;;0.50;0.50;;;;;;;24.26;79.96;99247.44;5074363;28;20632;-62
2023/06/25 01:06:02;;;;;;;0.40;0.40;;;;;;;24.05;79.38;99213.44;5072077;28;20691;-63
2023/06/25 01:08:32;;;;;;;0.60;0.60;;;;;;;24.09;79.81;99231.50;5073587;28;20203;-62
2023/06/25 01:10:59;;;;;;;0.50;0.50;;;;;;;24.11;81.03;99233.03;5073680;28;20212;-62
2023/06/25 01:13:25;;;;;;;0.83;0.83;;;;;;;24.12;80.47;99239.13;5073644;28;20203;-62
2023/06/25 01:15:52;;;;;;;0.57;0.57;;;;;;;24.07;80.99;99242.13;5073782;28;20196;-62
2023/06/25 01:18:22;;;;;;;0.50;0.50;;;;;;;23.95;80.60;99236.16;5072566;28;20203;-62
2023/06/25 01:20:52;;;;;;;0.60;0.60;;;;;;;23.94;81.76;99236.31;5073252;28;20199;-62
2023/06/25 01:23:21;;;;;;;0.60;0.60;;;;;;;23.83;80.95;99234.63;5073837;28;20235;-63
2023/06/25 01:25:48;;;;;;;0.50;0.50;;;;;;;23.76;80.88;99217.78;5073578;28;20675;-62
2023/06/25 01:28:19;;;;;;;0.50;0.50;;;;;;;23.77;80.29;99224.69;5073269;28;20216;-63
2023/06/25 01:30:47;;;;;;;0.60;0.60;;;;;;;23.86;80.08;99234.38;5073242;28;20303;-62
2023/06/25 01:33:15;;;;;;;0.50;0.50;;;;;;;23.82;80.96;99243.44;5073408;28;20195;-62
2023/06/25 01:35:42;;;;;;;0.40;0.40;;;;;;;23.85;81.54;99235.31;5073224;28;20287;-62
2023/06/25 01:38:09;;;;;;;0.93;0.93;;;;;;;23.88;80.79;99242.91;5073282;28;20198;-62
2023/06/25 01:40:37;;;;;;;3.40;0.80;;;;;;;23.90;80.69;99246.22;5070657;28;20219;-63
2023/06/25 01:43:04;;;;;;;0.47;0.40;;;;;;;23.88;80.25;99235.03;5073283;28;20264;-63
2023/06/25 01:45:31;;;;;;;0.53;0.53;;;;;;;23.88;79.90;99236.81;5073056;28;20229;-63
2023/06/25 01:47:59;;;;;;;0.47;0.47;;;;;;;23.85;80.39;99237.94;5072931;28;20677;-62
2023/06/25 01:50:25;;;;;;;0.50;0.50;;;;;;;23.74;80.15;99219.72;5073183;28;20218;-63
2023/06/25 01:52:53;;;;;;;0.43;0.43;;;;;;;23.81;80.22;99226.06;5073018;28;20204;-63
2023/06/25 01:55:19;;;;;;;0.50;0.50;;;;;;;23.76;80.79;99233.50;5072830;28;20218;-63
2023/06/25 01:57:48;;;;;;;0.70;0.70;;;;;;;23.70;81.18;99228.81;5072374;28;20203;-63
2023/06/25 02:00:15;;;;;;;0.43;0.43;;;;;;;23.67;81.58;99226.47;5072894;28;20219;-63
2023/06/25 02:02:42;;;;;;;0.43;0.43;;;;;;;23.72;81.86;99237.34;5072719;28;20192;-63
2023/06/25 02:05:09;;;;;;;0.70;0.70;;;;;;;23.72;81.26;99239.13;5072971;28;20596;-63
2023/06/25 02:07:36;;;;;;;11.27;0.80;;;;;;;23.72;82.17;99241.75;5072739;28;20279;-63
2023/06/25 02:10:03;;;;;;;0.50;0.50;;;;;;;23.71;81.35;99235.69;5072341;28;20212;-63
2023/06/25 02:12:30;;;;;;;0.30;0.30;;;;;;;23.70;81.15;99238.44;5072641;28;20193;-62
2023/06/25 02:14:58;;;;;;;0.60;0.60;;;;;;;23.67;81.36;99234.31;5072499;28;20207;-63
2023/06/25 02:17:25;;;;;;;0.70;0.70;;;;;;;23.52;81.64;99214.69;5072324;28;20215;-63
2023/06/25 02:19:51;;;;;;;0.70;0.70;;;;;;;23.51;81.68;99224.34;5072349;28;20196;-63
2023/06/25 02:22:18;;;;;;;0.77;0.60;;;;;;;23.42;82.37;99232.16;5072796;28;20196;-62
2023/06/25 02:24:45;;;;;;;0.60;0.60;;;;;;;23.37;83.21;99229.03;5072340;28;20653;-63
2023/06/25 02:27:12;;;;;;;0.60;0.60;;;;;;;23.35;84.23;99244.06;5072213;28;20626;-63
2023/06/25 02:29:39;;;;;;;0.83;0.73;;;;;;;23.33;84.33;99238.94;5071992;28;20638;-62
2023/06/25 02:32:08;;;;;;;0.67;0.50;;;;;;;23.28;85.71;99240.31;5072057;28;20992;-62
2023/06/25 02:34:34;;;;;;;0.80;0.80;;;;;;;23.22;86.60;99243.44;5069889;28;20287;-63
2023/06/25 02:37:12;;;;;;;0.50;0.50;;;;;;;23.20;88.02;99251.41;5071978;28;20203;-63
2023/06/25 02:39:39;;;;;;;0.67;0.67;;;;;;;23.12;90.14;99248.63;5070418;28;20203;-62
2023/06/25 02:42:06;;;;;;;0.50;0.50;;;;;;;23.11;91.52;99251.34;5071909;28;20203;-63
2023/06/25 02:44:32;;;;;;;0.67;0.67;;;;;;;23.03;92.55;99249.41;5072174;28;20196;-62
2023/06/25 02:46:59;;;;;;;0.73;0.70;;;;;;;22.92;95.10;99241.59;5071864;28;20199;-63
2023/06/25 02:49:27;;;;;;;0.80;0.80;;;;;;;22.89;96.50;99236.63;5072007;28;20204;-63
2023/06/25 02:51:54;;;;;;;0.40;0.40;;;;;;;22.86;97.50;99232.50;5071624;28;20679;-63
2023/06/25 02:54:21;;;;;;;0.50;0.50;;;;;;;22.85;98.47;99236.06;5071706;28;20200;-62
2023/06/25 02:56:50;;;;;;;0.90;0.90;;;;;;;22.81;99.25;99229.41;5071581;28;20204;-63
2023/06/25 02:59:17;;;;;;;1.03;0.90;;;;;;;22.76;100.00;99231.59;5071477;28;20203;-62
2023/06/25 03:01:44;;;;;;;0.60;0.60;;;;;;;22.78;100.00;99229.66;5071759;28;20192;-63
2023/06/25 03:04:10;;;;;;;0.50;0.50;;;;;;;22.85;100.00;99233.44;5071639;28;20200;-63
2023/06/25 03:06:39;;;;;;;0.40;0.40;;;;;;;22.83;100.00;99235.38;5071606;28;20200;-63
2023/06/25 03:09:07;;;;;;;0.50;0.50;;;;;;;22.79;100.00;99236.56;5071267;28;20196;-62
2023/06/25 03:11:34;;;;;;;0.63;0.63;;;;;;;22.82;100.00;99240.69;5070786;28;20227;-63
2023/06/25 03:14:04;;;;;;;0.80;0.80;;;;;;;22.86;100.00;99237.72;5071222;28;20204;-63
2023/06/25 03:16:31;;;;;;;0.50;0.50;;;;;;;22.90;100.00;99239.13;5071402;28;20208;-62
2023/06/25 03:18:57;;;;;;;0.40;0.40;;;;;;;22.89;100.00;99237.47;5071433;28;20204;-62
2023/06/25 03:21:24;;;;;;;0.57;0.57;;;;;;;22.89;100.00;99234.84;5071305;28;20200;-63
2023/06/25 03:23:52;;;;;;;0.53;0.53;;;;;;;22.92;100.00;99231.97;5071038;28;20204;-62
2023/06/25 03:26:19;;;;;;;0.37;0.37;;;;;;;22.86;100.00;99235.09;5071291;28;20596;-63
2023/06/25 03:28:46;;;;;;;0.77;0.77;;;;;;;22.86;100.00;99242.94;5068384;28;20219;-63
2023/06/25 03:31:13;;;;;;;0.67;0.67;;;;;;;22.81;100.00;99234.66;5071029;28;20227;-63
2023/06/25 03:33:39;;;;;;;1.00;1.00;;;;;;;22.94;100.00;99237.91;5071109;28;20206;-63
2023/06/25 03:36:06;;;;;;;0.67;0.67;;;;;;;22.95;100.00;99236.94;5071111;28;20608;-63
2023/06/25 03:38:33;;;;;;;0.47;0.47;;;;;;;23.01;100.00;99244.28;5070981;28;20200;-63
2023/06/25 03:41:01;;;;;;;0.30;0.30;;;;;;;23.00;100.00;99234.75;5071335;28;20200;-63
2023/06/25 03:43:28;;;;;;;0.50;0.50;;;;;;;23.10;100.00;99240.09;5071056;28;20619;-63
2023/06/25 03:45:55;;;;;;;0.50;0.50;;;;;;;23.09;100.00;99232.34;5070976;28;20579;-63
2023/06/25 03:48:21;;;;;;;0.43;0.43;;;;;;;23.24;100.00;99233.66;5070944;28;20596;-63
2023/06/25 03:50:48;;;;;;;1.80;0.50;;;;;;;23.25;100.00;99237.94;5070884;28;20724;-63
2023/06/25 03:53:17;;;;;;;0.63;0.60;;;;;;;23.34;100.00;99226.69;5070878;28;20699;-63
2023/06/25 03:55:44;;;;;;;1.03;1.03;;;;;;;23.41;99.45;99233.09;5070880;28;20204;-63
2023/06/25 03:58:12;;;;;;;0.97;0.97;;;;;;;23.48;99.24;99234.25;5070946;28;20672;-63
2023/06/25 04:00:39;;;;;;;0.60;0.60;;;;;;;23.49;98.27;99213.16;5070983;28;20290;-63
2023/06/25 04:03:06;;;;;;;0.60;0.60;;;;;;;23.74;97.73;99238.06;5070985;28;20196;-63
2023/06/25 04:05:33;;;;;;;0.63;0.63;;;;;;;23.88;96.94;99242.91;5070656;28;20683;-63
2023/06/25 04:07:59;;;;;;;0.50;0.50;;;;;;;24.04;96.34;99243.22;5071052;28;20204;-62
2023/06/25 04:10:26;;;;;;;0.70;0.70;;;;;;;24.18;95.53;99239.41;5070804;28;20676;-63
2023/06/25 04:12:53;;;;;;;0.90;0.90;;;;;;;23.70;95.02;99139.81;5070735;28;20196;-63
2023/06/25 04:15:21;;;;;;;0.70;0.70;;;;;;;24.49;93.04;99242.75;5070608;28;20200;-63
2023/06/25 04:17:48;;;;;;;0.87;0.80;;;;;;;24.68;92.80;99247.16;5070644;28;20199;-63
2023/06/25 04:20:15;;;;;;;0.63;0.63;;;;;;;24.70;91.29;99219.84;5070636;28;20270;-63
2023/06/25 04:22:42;;;;;;;1.00;0.80;;;;;;;24.93;90.27;99223.84;5070888;28;20196;-64
2023/06/25 04:25:09;;;;;;;1.23;0.83;;;;;;;25.18;88.16;99229.44;5074505;28;20196;-62
2023/06/25 04:27:36;;;;;;;1.30;1.30;;;;;;;25.31;87.19;99235.19;5074395;28;20196;-63
2023/06/25 04:30:03;;;;;;;0.70;0.70;;;;;;;25.46;87.16;99233.78;5074467;28;20208;-63
2023/06/25 04:32:32;;;;;;;0.70;0.70;;;;;;;25.64;84.77;99231.22;5074386;28;20204;-63
2023/06/25 04:34:59;;;;;;;0.73;0.73;;;;;;;25.78;82.81;99233.38;5074536;28;20199;-63
2023/06/25 04:37:26;;;;;;;0.73;0.73;;;;;;;25.88;80.90;99244.66;5072103;28;20231;-64
2023/06/25 04:39:53;;;;;;;1.03;1.00;;;;;;;26.03;82.06;99249.25;5074492;28;20192;-63
2023/06/25 04:42:20;;;;;;;0.50;0.50;;;;;;;26.17;79.00;99255.03;5074248;28;20199;-63
2023/06/25 04:44:46;;;;;;;0.40;0.40;;;;;;;26.38;79.23;99252.91;5074287;28;20634;-63
2023/06/25 04:47:13;;;;;;;1.70;1.07;;;;;;;26.56;78.29;99261.63;5074077;28;20207;-63
2023/06/25 04:49:41;;;;;;;0.57;0.57;;;;;;;26.77;78.90;99263.94;5074341;28;20321;-63
2023/06/25 04:52:08;;;;;;;0.63;0.63;;;;;;;26.83;76.69;99261.56;5074009;28;20219;-63
2023/06/25 04:54:35;;;;;;;1.07;1.07;;;;;;;26.80;75.12;99253.94;5074012;28;20199;-63
2023/06/25 04:57:02;;;;;;;0.83;0.83;;;;;;;26.88;74.26;99275.06;5074071;28;20200;-63
2023/06/25 04:59:29;;;;;;;0.97;0.97;;;;;;;26.98;75.49;99261.84;5073817;28;20192;-63
2023/06/25 05:01:55;;;;;;;0.60;0.60;;;;;;;27.27;72.97;99282.63;5073956;28;20253;-63
2023/06/25 05:04:22;;;;;;;0.70;0.70;;;;;;;27.39;74.67;99278.72;5073980;28;20234;-63
2023/06/25 05:06:50;;;;;;;2.23;0.73;;;;;;;27.43;72.33;99282.72;5073831;28;20254;-63
2023/06/25 05:09:17;;;;;;;1.40;0.90;;;;;;;27.42;73.17;99283.69;5071684;28;20211;-63
2023/06/25 05:11:44;;;;;;;1.30;0.83;;;;;;;27.36;71.36;99285.16;5074004;28;20216;-63
2023/06/25 05:14:10;;;;;;;1.27;1.00;;;;;;;27.45;71.22;99275.50;5074125;28;20200;-63
2023/06/25 05:16:37;;;;;;;0.60;0.40;;;;;;;27.44;72.73;99279.09;5074009;28;20257;-63
2023/06/25 05:19:04;;;;;;;0.60;0.60;;;;;;;27.64;72.64;99280.53;5073859;28;20671;-63
2023/06/25 05:21:31;;;;;;;0.73;0.67;;;;;;;27.67;71.94;99272.31;5073602;28;20188;-63
2023/06/25 05:24:01;;;;;;;0.70;0.70;;;;;;;27.81;71.31;99279.66;5073725;28;20222;-63
2023/06/25 05:26:28;;;;;;;2.27;0.93;;;;;;;28.01;71.39;99273.09;5073351;28;20203;-63
2023/06/25 05:28:56;;;;;;;0.80;0.80;;;;;;;28.20;73.15;99273.88;5073196;28;20222;-63
2023/06/25 05:31:23;;;;;;;2.73;0.80;;;;;;;28.40;68.62;99277.88;5071061;28;20227;-62
2023/06/25 05:33:51;;;;;;;0.90;0.90;;;;;;;28.39;67.50;99281.47;5072487;28;20290;-63
2023/06/25 05:36:18;;;;;;;0.67;0.67;;;;;;;28.40;70.21;99276.03;5073330;28;20676;-63
2023/06/25 05:38:44;;;;;;;0.70;0.70;;;;;;;28.44;69.66;99282.63;5073318;28;20259;-63
2023/06/25 05:41:13;;;;;;;0.90;0.90;;;;;;;28.61;70.14;99265.03;5073407;28;20287;-63
2023/06/25 05:43:40;;;;;;;0.70;0.70;;;;;;;28.94;69.17;99276.44;5073088;28;20269;-64
2023/06/25 05:46:11;;;;;;;0.80;0.80;;;;;;;29.14;68.61;99278.53;5073357;28;20195;-64
2023/06/25 05:48:38;;;;;;;2.20;0.73;;;;;;;29.41;66.75;99268.63;5073255;28;20621;-64
2023/06/25 05:51:05;;;;;;;0.70;0.70;;;;;;;29.64;66.75;99278.31;5072926;28;20220;-63
2023/06/25 05:53:39;;;;;;;1.27;1.25;;;;;;;29.82;67.04;99272.81;5073086;28;20253;-64
2023/06/25 05:56:08;;;;;;;0.85;0.85;;;;;;;30.04;66.40;99280.00;5072840;28;20286;-62
2023/06/25 05:58:37;;;;;;;0.50;0.50;;;;;;;30.28;68.54;99272.91;5073053;28;20192;-64
2023/06/25 06:01:04;;;;;;;0.40;0.40;;;;;;;30.38;63.91;99278.78;5072917;28;20580;-64
2023/06/25 06:03:30;;;;;;;0.50;0.50;;;;;;;30.49;66.65;99275.78;5072763;28;20683;-63
2023/06/25 06:05:58;;;;;;;0.60;0.60;;;;;;;30.59;63.39;99271.09;5072685;28;20269;-63
2023/06/25 06:08:25;;;;;;;0.60;0.60;;;;;;;30.89;63.87;99280.75;5072675;28;20200;-63
2023/06/25 06:10:52;;;;;;;1.20;0.40;;;;;;;30.89;62.71;99266.72;5072740;28;20253;-64
2023/06/25 06:13:19;;;;;;;0.45;0.45;;;;;;;31.11;62.77;99272.00;5072690;28;20192;-64
2023/06/25 06:15:47;;;;;;;0.50;0.50;;;;;;;30.94;63.71;99275.75;5072597;28;20204;-63
2023/06/25 06:18:14;;;;;;;0.57;0.57;;;;;;;30.90;62.47;99269.16;5072513;28;20230;-63
2023/06/25 06:20:41;;;;;;;0.55;0.55;;;;;;;30.79;62.64;99277.56;5072696;28;20195;-64
2023/06/25 06:23:08;;;;;;;0.52;0.52;;;;;;;30.75;62.91;99265.66;5072338;28;20200;-63
2023/06/25 06:25:34;;;;;;;0.30;0.30;;;;;;;30.88;61.03;99271.19;5072566;28;20249;-63
2023/06/25 06:28:02;;;;;;;0.43;0.43;;;;;;;30.82;62.51;99274.53;5072019;28;20228;-63
2023/06/25 06:30:29;;;;;;;0.75;0.75;;;;;;;31.04;65.09;99271.06;5072376;28;20200;-63
2023/06/25 06:32:57;;;;;;;0.70;0.70;;;;;;;31.36;62.68;99269.91;5072191;28;20588;-63
2023/06/25 06:35:24;;;;;;;0.77;0.57;;;;;;;31.19;60.40;99266.59;5072166;28;20200;-64
2023/06/25 06:37:53;;;;;;;0.50;0.50;;;;;;;31.03;61.22;99268.59;5072035;28;20204;-65
2023/06/25 06:40:20;;;;;;;0.60;0.60;;;;;;;30.76;61.36;99266.50;5072209;28;20203;-64
2023/06/25 06:42:47;;;;;;;0.50;0.50;;;;;;;30.89;61.05;99256.91;5072372;28;20204;-65
2023/06/25 06:45:14;;;;;;;0.25;0.25;;;;;;;30.96;60.40;99262.34;5071736;28;20250;-65
2023/06/25 06:47:41;;;;;;;0.55;0.55;;;;;;;30.93;61.12;99242.31;5071970;28;20204;-64
2023/06/25 06:50:09;;;;;;;2.15;1.00;;;;;;;31.34;59.71;99258.69;5071927;28;20200;-64
2023/06/25 06:52:36;;;;;;;0.60;0.50;;;;;;;31.17;58.39;99242.13;5072032;28;20234;-64
2023/06/25 06:55:03;;;;;;;0.63;0.63;;;;;;;31.26;60.00;99253.47;5071368;28;20200;-64
2023/06/25 06:57:30;;;;;;;0.50;0.50;;;;;;;31.33;59.45;99242.97;5071836;28;20230;-64
2023/06/25 06:59:57;;;;;;;0.75;0.75;;;;;;;31.59;58.72;99248.66;5071640;28;20200;-64
2023/06/25 07:02:23;;;;;;;0.70;0.70;;;;;;;31.64;57.46;99236.47;5071444;28;20192;-64
2023/06/25 07:04:51;;;;;;;0.60;0.60;;;;;;;31.60;58.45;99218.50;5071612;28;20193;-64
2023/06/25 07:07:19;;;;;;;0.50;0.50;;;;;;;31.67;56.33;99224.69;5071886;28;20211;-64
2023/06/25 07:09:54;;;;;;;0.40;0.40;;;;;;;31.55;57.53;99213.75;5071545;28;20235;-65
2023/06/25 07:12:21;;;;;;;0.75;0.57;;;;;;;31.70;55.88;99225.13;5071395;28;20733;-64
2023/06/25 07:14:48;;;;;;;3.30;0.63;;;;;;;31.71;56.46;99199.47;5071586;28;20618;-64
2023/06/25 07:17:15;;;;;;;1.13;0.65;;;;;;;32.09;55.36;99230.09;5071274;28;20215;-64
2023/06/25 07:19:41;;;;;;;0.50;0.50;;;;;;;32.43;54.84;99223.31;5071395;28;20265;-64
2023/06/25 07:22:08;;;;;;;0.82;0.82;;;;;;;32.72;51.51;99220.53;5071266;28;20257;-64
2023/06/25 07:24:36;;;;;;;0.60;0.60;;;;;;;32.82;52.82;99218.38;5071198;28;20219;-64
2023/06/25 07:27:03;;;;;;;0.65;0.65;;;;;;;33.06;52.13;99222.41;5071473;28;20676;-64
2023/06/25 07:29:30;;;;;;;0.57;0.57;;;;;;;33.01;52.48;99198.28;5070963;28;20306;-64
2023/06/25 07:31:57;;;;;;;0.43;0.43;;;;;;;33.22;52.95;99193.72;5071092;28;20215;-64
2023/06/25 07:34:24;;;;;;;1.00;1.00;;;;;;;33.19;53.44;99210.06;5071153;28;20200;-65
2023/06/25 07:36:50;;;;;;;0.73;0.73;;;;;;;33.15;55.92;99203.50;5071283;28;20207;-64
2023/06/25 07:39:29;;;;;;;0.50;0.50;;;;;;;33.33;51.35;99204.81;5068577;28;20199;-64
2023/06/25 07:41:58;;;;;;;0.43;0.43;;;;;;;33.63;51.39;99200.91;5071418;28;20721;-62
2023/06/25 07:44:25;;;;;;;1.38;0.50;;;;;;;33.93;51.63;99202.22;5071053;28;20192;-64
2023/06/25 07:46:52;;;;;;;0.82;0.82;;;;;;;33.93;49.73;99191.59;5071483;28;20200;-64
2023/06/25 07:49:19;;;;;;;0.40;0.40;;;;;;;34.13;47.71;99199.66;5071334;28;20663;-65
2023/06/25 07:51:50;;;;;;;1.10;0.70;;;;;;;34.02;46.99;99193.06;5071085;28;20223;-64
2023/06/25 07:54:17;;;;;;;0.50;0.50;;;;;;;34.03;51.52;99192.03;5070982;28;20240;-64
2023/06/25 07:56:44;;;;;;;0.85;0.63;;;;;;;34.19;46.88;99189.00;5070364;28;20202;-62
2023/06/25 07:59:12;;;;;;;0.50;0.50;;;;;;;34.14;48.08;99180.84;5070977;28;20581;-63
2023/06/25 08:01:39;;;;;;;0.68;0.68;;;;;;;34.05;47.52;99176.69;5070854;28;20201;-63
2023/06/25 08:04:06;;;;;;;1.38;0.80;;;;;;;34.15;49.08;99173.69;5071163;28;20196;-63
2023/06/25 08:06:33;;;;;;;1.08;0.70;;;;;;;34.14;46.65;99164.03;5070899;28;20235;-63
2023/06/25 08:09:00;;;;;;;1.33;0.65;;;;;;;34.10;47.14;99168.09;5070898;28;20557;-63
2023/06/25 08:11:27;;;;;;;0.73;0.73;;;;;;;34.08;49.02;99168.31;5068145;28;20204;-63
2023/06/25 08:13:53;;;;;;;1.10;1.00;;;;;;;34.22;46.89;99155.84;5070847;28;20191;-63
2023/06/25 08:16:22;;;;;;;3.08;0.50;;;;;;;34.31;48.07;99153.81;5070971;28;20204;-63
2023/06/25 08:18:49;;;;;;;0.63;0.63;;;;;;;34.48;48.54;99157.69;5070841;28;20249;-63
2023/06/25 08:21:16;;;;;;;0.52;0.43;;;;;;;34.72;46.01;99149.94;5070890;28;20294;-63
2023/06/25 08:23:43;;;;;;;0.90;0.90;;;;;;;34.57;44.97;99153.84;5070764;28;20209;-63
2023/06/25 08:26:12;;;;;;;0.88;0.88;;;;;;;34.54;45.75;99143.59;5067903;28;20203;-65
2023/06/25 08:28:39;;;;;;;1.08;1.08;;;;;;;34.60;46.84;99137.44;5070646;28;20634;-63
2023/06/25 08:31:06;;;;;;;0.50;0.50;;;;;;;34.72;45.21;99141.13;5070851;28;20629;-63
2023/06/25 08:33:35;;;;;;;0.50;0.50;;;;;;;34.99;49.05;99134.75;5070714;28;20208;-64
2023/06/25 08:36:02;;;;;;;0.55;0.55;;;;;;;35.23;45.60;99136.72;5071116;28;20230;-64
2023/06/25 08:38:30;;;;;;;0.50;0.50;;;;;;;35.19;46.64;99122.19;5070783;28;20208;-64
2023/06/25 08:40:57;;;;;;;0.65;0.65;;;;;;;35.16;43.95;99146.59;5070976;28;20679;-64
2023/06/25 08:43:24;;;;;;;0.80;0.80;;;;;;;34.96;44.39;99135.13;5070628;28;20203;-64
2023/06/25 08:45:51;;;;;;;0.77;0.77;;;;;;;34.88;45.66;99132.69;5070542;28;20569;-64
2023/06/25 08:48:18;;;;;;;0.70;0.70;;;;;;;34.94;45.69;99129.19;5070757;28;20672;-64
2023/06/25 08:50:50;;;;;;;0.90;0.88;;;;;;;34.99;44.00;99125.91;5070351;28;20683;-64
2023/06/25 08:53:17;;;;;;;0.77;0.77;;;;;;;34.89;43.62;99121.03;5070404;28;20228;-64
2023/06/25 08:55:45;;;;;;;1.38;0.85;;;;;;;34.75;43.44;99125.56;5070711;28;20561;-64
2023/06/25 08:58:12;;;;;;;0.75;0.75;;;;;;;34.57;43.30;99111.22;5070411;28;20200;-64
2023/06/25 09:00:39;;;;;;;0.73;0.73;;;;;;;34.78;44.00;99113.66;5070375;28;20192;-64
2023/06/25 09:03:06;;;;;;;0.52;0.50;;;;;;;34.73;41.46;99105.50;5070369;28;20212;-64
2023/06/25 09:05:33;;;;;;;0.82;0.82;;;;;;;34.79;44.86;99099.34;5070320;28;20257;-65
2023/06/25 09:08:01;;;;;;;0.70;0.70;;;;;;;34.79;42.68;99112.66;5070651;28;20664;-64
2023/06/25 09:10:31;;;;;;;0.60;0.60;;;;;;;34.72;42.89;99106.50;5074216;28;20199;-64
2023/06/25 09:13:02;;;;;;;0.57;0.57;;;;;;;34.78;44.38;99103.00;5074156;28;20684;-65
2023/06/25 09:15:29;;;;;;;0.70;0.70;;;;;;;34.56;44.02;99098.94;5069166;28;20246;-64
2023/06/25 09:17:58;;;;;;;0.80;0.80;;;;;;;34.43;44.10;99106.94;5073671;28;20196;-64
2023/06/25 09:20:25;;;;;;;0.85;0.85;;;;;;;34.61;43.61;99101.81;5073572;28;20686;-64
2023/06/25 09:22:53;;;;;;;0.80;0.80;;;;;;;34.71;45.17;99107.53;5074081;28;20188;-64
2023/06/25 09:25:23;;;;;;;1.05;0.98;;;;;;;34.72;44.02;99094.03;5073822;28;20203;-64
2023/06/25 09:27:50;;;;;;;1.00;0.90;;;;;;;34.58;43.91;99091.53;5073384;28;21398;-65
2023/06/25 09:30:18;;;;;;;0.40;0.40;;;;;;;34.70;44.00;99092.59;5073604;28;20200;-64
2023/06/25 09:32:52;;;;;;;0.70;0.70;;;;;;;34.44;42.72;99089.94;5073308;28;20258;-64
2023/06/25 09:35:20;;;;;;;0.70;0.70;;;;;;;34.59;47.27;99087.88;5073391;28;20200;-65
2023/06/25 09:37:47;;;;;;;0.88;0.88;;;;;;;34.55;43.98;99070.66;5073444;28;20694;-64
2023/06/25 09:40:14;;;;;;;1.05;1.05;;;;;;;34.19;45.33;99085.22;5073426;28;20207;-65
2023/06/25 09:42:44;;;;;;;0.65;0.65;;;;;;;34.05;45.10;99080.09;5073287;28;20192;-65
2023/06/25 09:45:15;;;;;;;0.80;0.80;;;;;;;34.34;44.82;99078.88;5073451;28;20196;-64
2023/06/25 09:47:43;;;;;;;0.70;0.70;;;;;;;34.58;43.88;99075.56;5073571;28;20716;-64
2023/06/25 09:50:17;;;;;;;0.80;0.80;;;;;;;34.43;44.61;99061.69;5073078;28;20204;-64
2023/06/25 09:52:51;;;;;;;0.50;0.50;;;;;;;34.65;44.08;99071.09;5073061;28;20219;-65
2023/06/25 09:55:20;;;;;;;0.70;0.57;;;;;;;34.89;44.67;99067.75;5073226;28;20627;-65
2023/06/25 09:57:49;;;;;;;0.90;0.90;;;;;;;34.89;42.98;99059.75;5072883;28;20196;-65
2023/06/25 10:00:16;;;;;;;0.95;0.95;;;;;;;35.07;45.96;99059.88;5073002;28;20204;-65
2023/06/25 10:02:44;;;;;;;0.50;0.50;;;;;;;35.04;43.35;99025.66;5073073;28;20219;-66
2023/06/25 10:05:11;;;;;;;0.85;0.85;;;;;;;35.13;42.76;99052.91;5072765;28;20204;-65
2023/06/25 10:07:38;;;;;;;0.93;0.90;;;;;;;35.11;43.24;99017.69;5072741;28;20199;-65
2023/06/25 10:10:06;;;;;;;0.70;0.70;;;;;;;35.48;42.05;99043.50;5072849;28;20204;-65
2023/06/25 10:12:34;;;;;;;1.17;1.08;;;;;;;35.59;42.50;99039.38;5072720;28;20224;-65
2023/06/25 10:15:05;;;;;;;0.57;0.57;;;;;;;35.42;41.50;99036.34;5072888;28;20227;-65
2023/06/25 10:17:32;;;;;;;1.60;1.20;;;;;;;35.31;40.82;99037.06;5072739;28;20220;-65
2023/06/25 10:20:01;;;;;;;1.10;1.10;;;;;;;35.36;42.88;99025.72;5071967;28;20200;-65
2023/06/25 10:22:29;;;;;;;0.90;0.90;;;;;;;35.50;42.36;99016.63;5072476;28;20192;-64
2023/06/25 10:24:57;;;;;;;0.80;0.80;;;;;;;35.74;41.20;99014.00;5072551;28;20257;-65
2023/06/25 10:27:30;;;;;;;0.90;0.90;;;;;;;35.88;42.87;99017.41;5069779;28;20765;-65
2023/06/25 10:29:58;;;;;;;0.50;0.50;;;;;;;35.68;42.42;99014.06;5072506;28;20203;-64
2023/06/25 10:32:28;;;;;;;0.90;0.90;;;;;;;35.16;43.18;98992.00;5072394;28;20211;-64
2023/06/25 10:34:56;;;;;;;0.77;0.77;;;;;;;35.35;45.49;98998.25;5072351;28;20204;-64
2023/06/25 10:37:29;;;;;;;0.65;0.65;;;;;;;35.43;44.42;98999.84;5072108;28;20672;-64
2023/06/25 10:40:02;;;;;;;1.30;0.80;;;;;;;35.62;42.26;98998.94;5072170;28;20287;-64
2023/06/25 10:42:30;;;;;;;0.95;0.90;;;;;;;35.02;41.79;98993.09;5069656;28;20192;-64
2023/06/25 10:44:57;;;;;;;0.70;0.70;;;;;;;34.91;42.47;98969.78;5072440;28;20207;-64
2023/06/25 10:47:25;;;;;;;0.85;0.70;;;;;;;35.11;43.34;98991.84;5071975;28;20265;-64
2023/06/25 10:49:52;;;;;;;1.30;0.88;;;;;;;35.14;44.84;98990.59;5071937;28;20196;-64
2023/06/25 10:52:19;;;;;;;3.83;1.00;;;;;;;35.36;42.41;98988.41;5072175;28;20199;-65
2023/06/25 10:54:46;;;;;;;0.70;0.70;;;;;;;35.40;42.37;98990.44;5071978;28;20197;-66
2023/06/25 10:57:15;;;;;;;1.00;0.82;;;;;;;35.47;40.72;98995.72;5071854;28;20200;-65
2023/06/25 10:59:44;;;;;;;1.48;1.05;;;;;;;35.29;40.28;98994.59;5071970;28;20588;-64
2023/06/25 11:02:15;;;;;;;0.90;0.90;;;;;;;35.18;43.94;98991.81;5071683;28;20196;-64
2023/06/25 11:04:49;;;;;;;0.93;0.75;;;;;;;35.38;42.99;98997.03;5071826;28;20208;-64
2023/06/25 11:07:16;;;;;;;0.82;0.82;;;;;;;35.42;42.87;98992.88;5069259;28;20580;-64
2023/06/25 11:09:45;;;;;;;0.80;0.80;;;;;;;35.36;43.58;98983.06;5071748;28;20207;-64
2023/06/25 11:12:12;;;;;;;1.05;0.98;;;;;;;35.52;46.12;98983.38;5071612;28;20192;-65
2023/06/25 11:14:38;;;;;;;0.73;0.73;;;;;;;35.65;44.23;98983.31;5071811;28;20200;-65
2023/06/25 11:17:07;;;;;;;0.55;0.55;;;;;;;35.75;45.65;98972.16;5071891;28;20580;-64
2023/06/25 11:19:34;;;;;;;0.70;0.70;;;;;;;35.24;42.95;98965.13;5071473;28;20192;-65
2023/06/25 11:22:07;;;;;;;0.80;0.80;;;;;;;35.10;43.58;98965.41;5071621;28;20196;-64
2023/06/25 11:24:35;;;;;;;1.33;1.33;;;;;;;34.90;43.14;98952.16;5071459;28;20196;-65
2023/06/25 11:27:04;;;;;;;0.63;0.50;;;;;;;34.75;42.89;98964.94;5068911;28;20286;-64
2023/06/25 11:29:37;;;;;;;0.65;0.57;;;;;;;34.50;42.63;98950.69;5070965;28;20247;-64
2023/06/25 11:32:05;;;;;;;0.77;0.77;;;;;;;34.58;42.79;98974.38;5070635;28;20283;-64
2023/06/25 11:34:33;;;;;;;0.80;0.80;;;;;;;34.56;43.56;98976.47;5071183;28;20720;-64